Time;durP1;ratioP1;P1;durP2;ratioP2;P2;SDS_P1;SDS_P2;PMS_P1;PMS_P2;Temp;Humidity;BMP_temperature;BMP_pressure;BME280_temperature;BME280_humidity;BME280_pressure;Samples;Min_cycle;Max_cycle;Signal;HPM_P1;HPM_P2
2022/04/12 00:01:05;;;;;;;5.38;4.00;;;11.60;99.90;;;;;;5006104;28;20096;-59
2022/04/12 00:03:32;;;;;;;6.53;3.78;;;11.60;99.90;;;;;;5017278;28;20404;-60
2022/04/12 00:05:59;;;;;;;4.25;3.00;;;11.50;99.90;;;;;;5024738;28;20516;-58
2022/04/12 00:08:26;;;;;;;5.72;4.20;;;11.50;99.90;;;;;;5011681;28;20077;-59
2022/04/12 00:10:53;;;;;;;5.35;3.90;;;11.50;99.90;;;;;;5017634;28;20141;-59
2022/04/12 00:13:20;;;;;;;5.05;3.67;;;11.40;99.90;;;;;;5019412;28;20767;-59
2022/04/12 00:15:49;;;;;;;5.05;3.75;;;11.40;99.90;;;;;;5023373;28;20426;-60
2022/04/12 00:21:02;;;;;;;5.07;3.55;;;11.40;99.90;;;;;;5004659;28;20158;-59
2022/04/12 00:23:29;;;;;;;5.30;4.30;;;11.40;99.90;;;;;;5011914;28;20490;-59
2022/04/12 00:25:56;;;;;;;4.25;3.33;;;11.40;99.90;;;;;;5005210;28;20054;-59
2022/04/12 00:28:23;;;;;;;4.57;3.67;;;11.40;99.90;;;;;;5003447;28;20085;-59
2022/04/12 00:30:50;;;;;;;4.95;3.92;;;11.30;99.90;;;;;;5004829;28;20085;-59
2022/04/12 00:33:17;;;;;;;5.00;4.32;;;11.30;99.90;;;;;;5009746;28;20049;-59
2022/04/12 00:35:44;;;;;;;4.70;3.50;;;11.30;99.90;;;;;;5010582;28;20129;-60
2022/04/12 00:38:17;;;;;;;5.05;3.63;;;11.30;99.90;;;;;;5016145;28;20153;-60
2022/04/12 00:40:45;;;;;;;4.93;3.90;;;11.30;99.90;;;;;;5009970;28;20050;-59
2022/04/12 00:43:12;;;;;;;4.65;3.58;;;11.30;99.90;;;;;;5037760;28;20081;-59
2022/04/12 00:45:39;;;;;;;5.00;3.88;;;11.30;99.90;;;;;;5023096;28;20125;-59
2022/04/12 00:48:06;;;;;;;5.50;4.07;;;11.30;99.90;;;;;;5012413;28;20136;-60
2022/04/12 00:50:32;;;;;;;6.30;4.38;;;11.30;99.90;;;;;;5004150;28;20085;-59
2022/04/12 00:52:59;;;;;;;4.80;3.88;;;11.20;99.90;;;;;;5019551;28;20072;-59
2022/04/12 00:55:26;;;;;;;5.63;4.18;;;11.20;99.90;;;;;;5015589;28;20557;-59
2022/04/12 00:57:53;;;;;;;5.30;3.55;;;11.30;99.90;;;;;;5009535;28;20125;-59
2022/04/12 01:00:20;;;;;;;5.85;4.15;;;11.30;99.90;;;;;;5019944;28;20077;-59
2022/04/12 01:02:47;;;;;;;6.18;4.35;;;11.30;99.90;;;;;;5007694;28;20492;-59
2022/04/12 01:05:14;;;;;;;4.22;3.42;;;11.30;99.90;;;;;;5005544;28;20056;-59
2022/04/12 01:07:42;;;;;;;5.80;3.97;;;11.30;99.90;;;;;;5011765;28;20141;-59
2022/04/12 01:10:09;;;;;;;5.32;3.80;;;11.30;99.90;;;;;;5029447;28;20085;-59
2022/04/12 01:12:38;;;;;;;5.07;3.72;;;11.30;99.90;;;;;;5008770;28;20129;-59
2022/04/12 01:15:15;;;;;;;5.35;4.13;;;11.30;99.90;;;;;;5004939;28;20084;-59
2022/04/12 01:17:45;;;;;;;5.55;4.32;;;11.40;99.90;;;;;;5012583;28;20350;-59
2022/04/12 01:20:13;;;;;;;5.70;4.00;;;11.40;99.90;;;;;;5036576;28;20119;-59
2022/04/12 01:22:59;;;;;;;5.85;4.35;;;11.40;99.90;;;;;;5021312;28;20076;-59
2022/04/12 01:25:26;;;;;;;4.57;3.40;;;11.40;99.90;;;;;;5004872;28;20509;-59
2022/04/12 01:27:53;;;;;;;5.32;4.32;;;11.40;99.90;;;;;;5035954;28;20085;-59
2022/04/12 01:30:20;;;;;;;5.07;3.80;;;11.40;99.90;;;;;;5037283;28;20493;-59
2022/04/12 01:32:47;;;;;;;5.40;4.03;;;11.40;99.90;;;;;;5015676;28;20211;-59
2022/04/12 01:35:13;;;;;;;5.10;3.88;;;11.40;99.90;;;;;;5023903;28;20217;-59
2022/04/12 01:37:40;;;;;;;5.60;4.70;;;11.40;99.90;;;;;;5017348;28;20143;-59
2022/04/12 01:40:09;;;;;;;5.32;3.80;;;11.40;99.90;;;;;;5020145;28;20124;-59
2022/04/12 01:42:39;;;;;;;5.15;3.90;;;11.40;99.90;;;;;;5029645;28;20472;-59
2022/04/12 01:45:06;;;;;;;5.25;3.35;;;11.30;99.90;;;;;;5028823;28;20087;-59
2022/04/12 01:47:33;;;;;;;5.38;4.20;;;11.30;99.90;;;;;;5016261;28;20061;-59
2022/04/12 01:50:00;;;;;;;5.20;3.90;;;11.30;99.90;;;;;;5025087;28;20084;-59
2022/04/12 01:52:27;;;;;;;6.22;3.97;;;11.20;99.90;;;;;;5026609;28;20454;-59
2022/04/12 01:54:54;;;;;;;5.95;4.03;;;11.20;99.90;;;;;;5026786;28;20128;-60
2022/04/12 01:57:20;;;;;;;5.55;3.92;;;11.20;99.90;;;;;;5008500;28;20123;-59
2022/04/12 01:59:47;;;;;;;4.70;3.95;;;11.20;99.90;;;;;;5008314;28;20096;-59
2022/04/12 02:02:14;;;;;;;4.80;3.80;;;11.20;99.90;;;;;;5007891;28;20578;-59
2022/04/12 02:04:41;;;;;;;4.97;3.65;;;11.20;99.90;;;;;;5024471;28;20046;-59
2022/04/12 02:07:08;;;;;;;4.63;4.00;;;11.10;99.90;;;;;;5018822;28;20508;-59
2022/04/12 02:09:34;;;;;;;5.43;4.13;;;11.20;99.90;;;;;;5029466;28;20188;-59
2022/04/12 02:12:01;;;;;;;5.30;3.95;;;11.10;99.90;;;;;;5014759;28;20129;-59
2022/04/12 02:14:28;;;;;;;5.05;3.90;;;11.10;99.90;;;;;;5031987;28;20077;-59
2022/04/12 02:16:55;;;;;;;5.65;4.35;;;11.10;99.90;;;;;;5009655;28;20141;-59
2022/04/12 02:19:22;;;;;;;6.55;4.57;;;11.10;99.90;;;;;;5020265;28;20115;-59
2022/04/12 02:21:48;;;;;;;5.72;4.30;;;11.10;99.90;;;;;;5025852;28;20089;-59
2022/04/12 02:24:15;;;;;;;5.30;4.30;;;11.10;99.90;;;;;;5024345;28;20132;-59
2022/04/12 02:26:42;;;;;;;4.70;3.88;;;11.10;99.90;;;;;;5027111;28;20140;-59
2022/04/12 02:29:09;;;;;;;5.50;4.25;;;11.10;99.90;;;;;;5027396;28;20089;-59
2022/04/12 02:31:36;;;;;;;4.97;4.20;;;11.10;99.90;;;;;;5026659;28;20081;-59
2022/04/12 02:34:03;;;;;;;4.90;3.85;;;11.00;99.90;;;;;;5020591;28;20129;-59
2022/04/12 02:36:30;;;;;;;4.63;3.60;;;11.00;99.90;;;;;;5008252;28;20136;-59
2022/04/12 02:38:56;;;;;;;5.22;4.20;;;11.00;99.90;;;;;;5023261;28;20041;-59
2022/04/12 02:41:23;;;;;;;4.78;3.45;;;11.00;99.90;;;;;;5027000;28;20140;-59
2022/04/12 02:43:51;;;;;;;5.80;3.92;;;11.00;99.90;;;;;;5025121;28;20109;-59
2022/04/12 02:46:18;;;;;;;4.45;3.70;;;11.10;99.90;;;;;;5019502;28;20282;-59
2022/04/12 02:48:45;;;;;;;4.03;3.40;;;11.10;99.90;;;;;;5006983;28;20100;-59
2022/04/12 02:51:11;;;;;;;5.15;3.67;;;11.20;99.90;;;;;;5007028;28;20100;-59
2022/04/12 02:53:39;;;;;;;5.07;3.78;;;11.20;99.90;;;;;;5017770;28;20045;-59
2022/04/12 02:56:06;;;;;;;6.25;5.18;;;11.30;99.90;;;;;;5027575;28;20126;-59
2022/04/12 02:58:32;;;;;;;5.20;4.05;;;11.30;99.90;;;;;;5026847;28;20084;-59
2022/04/12 03:00:59;;;;;;;4.00;3.08;;;11.40;99.90;;;;;;5024996;28;20046;-59
2022/04/12 03:03:26;;;;;;;5.63;3.88;;;11.40;99.90;;;;;;5026035;28;20064;-59
2022/04/12 03:05:52;;;;;;;4.50;3.58;;;11.40;99.90;;;;;;5024841;28;20041;-60
2022/04/12 03:08:19;;;;;;;4.55;3.45;;;11.40;99.90;;;;;;5006417;28;20140;-59
2022/04/12 03:10:46;;;;;;;4.82;3.67;;;11.50;99.90;;;;;;5013803;28;20422;-59
2022/04/12 03:13:12;;;;;;;4.88;3.80;;;11.50;99.90;;;;;;5025129;28;20073;-59
2022/04/12 03:15:39;;;;;;;4.95;3.45;;;11.50;99.90;;;;;;5025981;28;20067;-59
2022/04/12 03:18:06;;;;;;;5.85;4.13;;;11.50;99.90;;;;;;5008630;28;20144;-59
2022/04/12 03:20:34;;;;;;;6.32;4.55;;;11.60;99.90;;;;;;5006032;28;20075;-59
2022/04/12 03:23:05;;;;;;;3.72;2.97;;;11.50;99.90;;;;;;5013176;28;20057;-59
2022/04/12 03:25:32;;;;;;;4.00;3.50;;;11.50;99.90;;;;;;5021332;28;20073;-59
2022/04/12 03:27:58;;;;;;;5.28;3.80;;;11.60;99.90;;;;;;5007601;28;20081;-59
2022/04/12 03:30:25;;;;;;;4.75;3.88;;;11.50;99.90;;;;;;5023507;28;20073;-59
2022/04/12 03:32:52;;;;;;;4.82;3.55;;;11.60;99.90;;;;;;5013248;28;20540;-59
2022/04/12 03:35:19;;;;;;;3.42;3.00;;;11.60;99.90;;;;;;5025396;28;20069;-59
2022/04/12 03:37:46;;;;;;;3.65;3.10;;;11.60;99.90;;;;;;5021270;28;20152;-59
2022/04/12 03:40:13;;;;;;;4.68;3.63;;;11.60;99.90;;;;;;5026412;28;20168;-59
2022/04/12 03:42:40;;;;;;;4.75;3.80;;;11.50;99.90;;;;;;5011841;28;20052;-59
2022/04/12 03:45:07;;;;;;;4.78;3.58;;;11.40;99.90;;;;;;5026221;28;20172;-60
2022/04/12 03:47:33;;;;;;;5.05;3.97;;;11.40;99.90;;;;;;5025143;28;20135;-59
2022/04/12 03:50:00;;;;;;;6.05;4.45;;;11.30;99.90;;;;;;5008426;28;20153;-59
2022/04/12 03:52:27;;;;;;;5.35;3.88;;;11.20;99.90;;;;;;5007787;28;20076;-59
2022/04/12 03:54:54;;;;;;;4.70;3.83;;;11.20;99.90;;;;;;5025736;28;20073;-60
2022/04/12 03:57:20;;;;;;;4.45;3.63;;;11.10;99.90;;;;;;5019348;28;20073;-60
2022/04/12 03:59:47;;;;;;;4.72;3.80;;;11.00;99.90;;;;;;5006287;28;20148;-59
2022/04/12 04:02:14;;;;;;;6.38;4.57;;;11.00;99.90;;;;;;5013523;28;20702;-60
2022/04/12 04:04:41;;;;;;;5.88;4.18;;;10.90;99.90;;;;;;5024587;28;20063;-59
2022/04/12 04:07:07;;;;;;;5.68;4.15;;;10.80;99.90;;;;;;5012527;28;20490;-59
2022/04/12 04:09:34;;;;;;;5.43;4.18;;;10.70;99.90;;;;;;5005983;28;20076;-59
2022/04/12 04:12:04;;;;;;;6.05;4.18;;;10.70;99.90;;;;;;5013860;28;20571;-59
2022/04/12 04:14:32;;;;;;;4.88;4.03;;;10.60;99.90;;;;;;5013066;28;20567;-59
2022/04/12 04:17:01;;;;;;;5.55;4.55;;;10.60;99.90;;;;;;5005576;28;20053;-59
2022/04/12 04:19:28;;;;;;;5.22;4.57;;;10.60;99.90;;;;;;5022752;28;20045;-59
2022/04/12 04:21:55;;;;;;;7.60;5.43;;;10.60;99.90;;;;;;5025599;28;20128;-59
2022/04/12 04:24:23;;;;;;;5.88;4.82;;;10.50;99.90;;;;;;5023644;28;20117;-60
2022/04/12 04:26:55;;;;;;;5.85;5.00;;;10.50;99.90;;;;;;5024016;28;20052;-59
2022/04/12 04:29:23;;;;;;;6.43;5.38;;;10.50;99.90;;;;;;5006250;28;20041;-59
2022/04/12 04:31:53;;;;;;;7.05;5.47;;;10.50;99.90;;;;;;5005328;28;20511;-59
2022/04/12 04:34:20;;;;;;;6.68;5.63;;;10.40;99.90;;;;;;5017311;28;20049;-59
2022/04/12 04:36:47;;;;;;;7.43;6.35;;;10.40;99.90;;;;;;5006855;28;20065;-59
2022/04/12 04:39:13;;;;;;;6.18;5.03;;;10.40;99.90;;;;;;5024772;28;20156;-59
2022/04/12 04:41:40;;;;;;;8.00;6.07;;;10.40;99.90;;;;;;5025163;28;20232;-59
2022/04/12 04:44:07;;;;;;;6.93;5.70;;;10.40;99.90;;;;;;5014228;28;20110;-59
2022/04/12 04:46:34;;;;;;;7.07;5.82;;;10.40;99.90;;;;;;5004944;28;20126;-59
2022/04/12 04:49:01;;;;;;;8.68;5.68;;;10.40;99.90;;;;;;5022062;28;20141;-59
2022/04/12 04:51:28;;;;;;;6.85;5.10;;;10.40;99.90;;;;;;5001515;28;20484;-59
2022/04/12 04:54:00;;;;;;;7.53;5.82;;;10.40;99.90;;;;;;5033894;28;20092;-59
2022/04/12 04:56:27;;;;;;;6.70;5.63;;;10.40;99.90;;;;;;5002920;28;20603;-58
2022/04/12 04:58:54;;;;;;;6.72;5.70;;;10.40;99.90;;;;;;5016438;28;20128;-60
2022/04/12 05:01:21;;;;;;;6.88;5.78;;;10.40;99.90;;;;;;5011754;28;20133;-59
2022/04/12 05:03:50;;;;;;;8.25;6.35;;;10.40;99.90;;;;;;5011404;28;20053;-59
2022/04/12 05:06:18;;;;;;;6.68;5.70;;;10.40;99.90;;;;;;5015396;28;20124;-60
2022/04/12 05:08:45;;;;;;;6.68;5.55;;;10.40;99.90;;;;;;5016118;28;20053;-59
2022/04/12 05:11:12;;;;;;;7.97;6.70;;;10.40;99.90;;;;;;5006165;28;20555;-59
2022/04/12 05:13:39;;;;;;;6.80;5.65;;;10.40;99.90;;;;;;5034847;28;20056;-59
2022/04/12 05:16:06;;;;;;;6.63;5.45;;;10.50;99.90;;;;;;5005495;28;20053;-59
2022/04/12 05:18:33;;;;;;;7.60;5.97;;;10.50;99.90;;;;;;5021451;28;20091;-59
2022/04/12 05:21:00;;;;;;;7.85;6.45;;;10.60;99.90;;;;;;5029391;28;20155;-59
2022/04/12 05:23:27;;;;;;;7.03;6.25;;;10.70;99.90;;;;;;5026286;28;20709;-60
2022/04/12 05:25:54;;;;;;;8.45;6.78;;;10.70;99.90;;;;;;5029687;28;20144;-59
2022/04/12 05:28:21;;;;;;;8.82;6.07;;;10.70;99.90;;;;;;5030861;28;20053;-60
2022/04/12 05:30:48;;;;;;;8.55;6.53;;;10.80;99.90;;;;;;5017455;28;20144;-59
2022/04/12 05:33:15;;;;;;;6.68;5.70;;;10.80;99.90;;;;;;5013257;28;20054;-59
2022/04/12 05:35:41;;;;;;;7.28;6.20;;;10.80;99.90;;;;;;5022938;28;20146;-60
2022/04/12 05:38:08;;;;;;;7.63;6.57;;;10.90;99.90;;;;;;5002496;28;20085;-60
2022/04/12 05:40:35;;;;;;;7.95;6.68;;;10.90;99.90;;;;;;5020375;28;20057;-59
2022/04/12 05:43:02;;;;;;;7.97;6.07;;;10.90;99.90;;;;;;5017719;28;20084;-59
2022/04/12 05:45:29;;;;;;;8.82;6.78;;;11.00;99.90;;;;;;5012923;28;20073;-60
2022/04/12 05:47:56;;;;;;;6.85;6.15;;;11.00;99.90;;;;;;5009413;28;20128;-59
2022/04/12 05:50:25;;;;;;;7.20;5.60;;;11.10;99.90;;;;;;4998402;28;20161;-59
2022/04/12 05:52:52;;;;;;;6.07;5.35;;;11.10;99.90;;;;;;5002842;28;20665;-60
2022/04/12 05:55:21;;;;;;;7.05;6.35;;;11.20;99.90;;;;;;5010247;28;20077;-59
2022/04/12 05:57:52;;;;;;;6.65;5.82;;;11.20;99.90;;;;;;5012153;28;20061;-59
2022/04/12 06:00:22;;;;;;;6.43;5.07;;;11.20;99.90;;;;;;5016784;28;20089;-59
2022/04/12 06:02:50;;;;;;;6.50;5.53;;;11.30;99.90;;;;;;5016740;28;20453;-59
2022/04/12 06:05:18;;;;;;;6.30;5.50;;;11.40;99.90;;;;;;5016336;28;20631;-59
2022/04/12 06:07:44;;;;;;;6.18;5.50;;;11.40;99.90;;;;;;5008785;28;20145;-58
2022/04/12 06:10:12;;;;;;;7.55;4.78;;;11.50;99.90;;;;;;5015141;28;20491;-59
2022/04/12 06:12:39;;;;;;;5.90;5.05;;;11.60;99.90;;;;;;5014466;28;20114;-59
2022/04/12 06:15:06;;;;;;;6.10;5.15;;;11.60;99.90;;;;;;5016511;28;20441;-59
2022/04/12 06:17:35;;;;;;;6.18;4.85;;;11.60;99.90;;;;;;5006958;28;20220;-59
2022/04/12 06:20:16;;;;;;;7.00;5.07;;;11.60;99.90;;;;;;5013969;28;20122;-59
2022/04/12 06:22:43;;;;;;;6.20;5.13;;;11.60;99.90;;;;;;5012630;28;20073;-59
2022/04/12 06:25:10;;;;;;;7.07;5.40;;;11.60;99.90;;;;;;5015646;28;20081;-59
2022/04/12 06:27:41;;;;;;;6.05;4.95;;;11.60;99.90;;;;;;5008637;28;20746;-59
2022/04/12 06:30:09;;;;;;;5.85;5.10;;;11.60;99.90;;;;;;5015220;28;20128;-59
2022/04/12 06:32:36;;;;;;;6.45;5.25;;;11.70;99.90;;;;;;5006957;28;20410;-59
2022/04/12 06:35:04;;;;;;;5.63;4.90;;;11.70;99.90;;;;;;5009749;28;20847;-59
2022/04/12 06:37:31;;;;;;;4.88;4.00;;;11.80;99.90;;;;;;5006095;28;20065;-60
2022/04/12 06:39:58;;;;;;;4.78;3.42;;;12.00;99.90;;;;;;5016494;28;20174;-61
2022/04/12 06:42:25;;;;;;;4.20;3.10;;;12.20;99.90;;;;;;5011840;28;20088;-60
2022/04/12 06:44:52;;;;;;;3.92;3.08;;;12.30;99.90;;;;;;5013493;28;20063;-61
2022/04/12 06:47:19;;;;;;;3.97;2.95;;;12.50;99.90;;;;;;5002964;28;20132;-61
2022/04/12 06:49:46;;;;;;;3.92;2.85;;;12.60;99.90;;;;;;5009647;28;20134;-58
2022/04/12 06:52:13;;;;;;;2.75;2.33;;;12.70;99.90;;;;;;5019472;28;20671;-60
2022/04/12 06:54:40;;;;;;;4.35;2.67;;;12.80;99.90;;;;;;5002522;28;20137;-60
2022/04/12 06:57:07;;;;;;;3.22;2.30;;;12.90;99.90;;;;;;5010525;28;20057;-60
2022/04/12 06:59:34;;;;;;;2.47;2.17;;;13.00;99.90;;;;;;5022855;28;20133;-60
2022/04/12 07:02:01;;;;;;;2.97;2.17;;;13.10;99.90;;;;;;5007019;28;20141;-60
2022/04/12 07:04:28;;;;;;;2.58;2.28;;;13.20;99.90;;;;;;5029047;28;20459;-60
2022/04/12 07:06:56;;;;;;;2.65;1.90;;;13.30;99.90;;;;;;5016728;28;20128;-61
2022/04/12 07:09:27;;;;;;;2.55;1.67;;;13.40;99.90;;;;;;5010350;28;20063;-61
2022/04/12 07:11:54;;;;;;;2.55;1.80;;;13.50;99.90;;;;;;5008953;28;20123;-61
2022/04/12 07:14:21;;;;;;;2.70;2.00;;;13.60;99.90;;;;;;5013176;28;20578;-60
2022/04/12 07:16:48;;;;;;;2.22;1.80;;;13.70;99.90;;;;;;5009900;28;20143;-60
2022/04/12 07:19:15;;;;;;;2.53;1.90;;;13.70;99.90;;;;;;5018263;28;20140;-61
2022/04/12 07:21:42;;;;;;;3.33;1.95;;;13.80;99.90;;;;;;5009056;28;20107;-61
2022/04/12 07:24:09;;;;;;;2.13;1.73;;;13.80;99.90;;;;;;5027962;28;20128;-61
2022/04/12 07:26:36;;;;;;;2.42;1.92;;;13.90;99.90;;;;;;5000655;28;20107;-61
2022/04/12 07:29:03;;;;;;;2.33;1.60;;;14.00;99.90;;;;;;5005217;28;20177;-61
2022/04/12 07:31:30;;;;;;;3.63;2.25;;;14.10;99.90;;;;;;5010389;28;20318;-61
2022/04/12 07:33:57;;;;;;;1.90;1.63;;;14.20;99.90;;;;;;5008605;28;20123;-60
2022/04/12 07:36:23;;;;;;;2.20;1.88;;;14.40;99.90;;;;;;5005842;28;20124;-61
2022/04/12 07:38:50;;;;;;;3.55;1.80;;;14.50;99.90;;;;;;5005667;28;20065;-61
2022/04/12 07:41:17;;;;;;;2.20;1.90;;;14.70;99.90;;;;;;5012122;28;20045;-61
2022/04/12 07:43:49;;;;;;;2.00;1.60;;;14.80;99.90;;;;;;5011463;28;20049;-61
2022/04/12 07:46:16;;;;;;;2.20;1.50;;;15.00;99.90;;;;;;5001754;28;20479;-61
2022/04/12 07:48:48;;;;;;;2.40;1.80;;;15.20;99.90;;;;;;5018218;28;20519;-61
2022/04/12 07:51:15;;;;;;;3.55;1.65;;;15.30;99.90;;;;;;5013080;28;20065;-62
2022/04/12 07:53:42;;;;;;;3.05;1.60;;;15.40;99.90;;;;;;5004796;28;20136;-61
2022/04/12 07:56:10;;;;;;;2.28;1.67;;;15.40;99.90;;;;;;5026254;28;20123;-61
2022/04/12 07:58:37;;;;;;;1.85;1.58;;;15.50;99.90;;;;;;5001374;28;20136;-61
2022/04/12 08:01:03;;;;;;;2.55;1.58;;;15.50;99.90;;;;;;5000295;28;20049;-61
2022/04/12 08:03:30;;;;;;;4.13;1.80;;;15.50;99.90;;;;;;5009375;28;20050;-60
2022/04/12 08:05:57;;;;;;;3.28;1.80;;;15.60;99.90;;;;;;5001336;28;20124;-61
2022/04/12 08:08:24;;;;;;;2.40;1.42;;;15.60;99.90;;;;;;5007712;28;20157;-61
2022/04/12 08:10:51;;;;;;;2.38;1.33;;;15.70;99.90;;;;;;5018419;28;20837;-61
2022/04/12 08:13:17;;;;;;;1.83;1.25;;;15.80;99.90;;;;;;5017879;28;20546;-61
2022/04/12 08:15:44;;;;;;;1.92;1.45;;;16.00;99.90;;;;;;5009269;28;20466;-61
2022/04/12 08:18:12;;;;;;;2.00;1.58;;;16.10;99.90;;;;;;5000171;28;20137;-58
2022/04/12 08:20:39;;;;;;;2.03;1.35;;;16.10;99.90;;;;;;5014297;28;20107;-58
2022/04/12 08:23:05;;;;;;;2.45;1.77;;;16.20;99.90;;;;;;5013076;28;20542;-61
2022/04/12 08:25:32;;;;;;;3.05;1.60;;;16.30;99.90;;;;;;5017756;28;20507;-58
2022/04/12 08:27:59;;;;;;;3.53;1.70;;;16.30;99.90;;;;;;5010457;28;20081;-58
2022/04/12 08:30:26;;;;;;;2.60;1.73;;;16.40;99.90;;;;;;5015467;28;20057;-59
2022/04/12 08:32:53;;;;;;;3.20;1.83;;;16.40;99.90;;;;;;5008005;28;20400;-59
2022/04/12 08:35:19;;;;;;;2.40;1.58;;;16.50;99.90;;;;;;5010463;28;20077;-60
2022/04/12 08:37:46;;;;;;;2.03;1.65;;;16.60;99.90;;;;;;5009520;28;20050;-58
2022/04/12 08:40:14;;;;;;;2.65;1.73;;;16.70;99.90;;;;;;5002281;28;20177;-59
2022/04/12 08:42:42;;;;;;;3.35;1.67;;;16.80;99.90;;;;;;5006819;28;20053;-59
2022/04/12 08:45:09;;;;;;;2.80;1.60;;;16.90;99.90;;;;;;5010851;28;20050;-59
2022/04/12 08:47:36;;;;;;;2.08;1.50;;;17.00;99.90;;;;;;5000633;28;20111;-59
2022/04/12 08:50:04;;;;;;;2.28;1.60;;;17.00;99.90;;;;;;5001564;28;20660;-58
2022/04/12 08:52:31;;;;;;;1.75;1.33;;;17.10;99.90;;;;;;5031033;28;20462;-58
2022/04/12 08:54:58;;;;;;;3.08;1.52;;;17.10;99.90;;;;;;4999470;28;20145;-59
2022/04/12 08:57:25;;;;;;;3.35;1.38;;;17.20;99.90;;;;;;5008438;28;20085;-58
2022/04/12 08:59:52;;;;;;;2.35;1.35;;;17.20;99.90;;;;;;5014333;28;20111;-58
2022/04/12 09:02:18;;;;;;;1.70;1.30;;;17.10;99.90;;;;;;5004434;28;20176;-59
2022/04/12 09:04:45;;;;;;;1.80;1.17;;;17.20;99.90;;;;;;5007534;28;20438;-58
2022/04/12 09:07:13;;;;;;;2.22;1.42;;;17.20;99.90;;;;;;5000817;28;20699;-61
2022/04/12 09:09:41;;;;;;;1.90;1.40;;;17.10;99.90;;;;;;5014875;28;20350;-61
2022/04/12 09:12:12;;;;;;;2.28;1.25;;;17.20;99.90;;;;;;5016857;28;20057;-61
2022/04/12 09:14:44;;;;;;;2.50;1.27;;;17.20;99.90;;;;;;5015491;28;20125;-58
2022/04/12 09:17:13;;;;;;;2.60;1.58;;;17.20;99.90;;;;;;5008711;28;20166;-58
2022/04/12 09:19:40;;;;;;;2.30;1.45;;;17.20;99.90;;;;;;5007044;28;20061;-58
2022/04/12 09:22:18;;;;;;;2.22;1.48;;;17.30;99.90;;;;;;5003812;28;20049;-58
2022/04/12 09:24:57;;;;;;;2.38;1.40;;;17.30;99.90;;;;;;5004746;28;20133;-59
2022/04/12 09:27:25;;;;;;;2.85;1.60;;;17.30;99.90;;;;;;5010135;28;20046;-58
2022/04/12 09:29:56;;;;;;;3.55;1.70;;;17.40;99.90;;;;;;5007553;28;20104;-58
2022/04/12 09:32:25;;;;;;;1.63;1.30;;;17.50;99.90;;;;;;5002030;28;20176;-59
2022/04/12 09:34:52;;;;;;;1.65;1.25;;;17.70;99.90;;;;;;5002617;28;20178;-61
2022/04/12 09:37:21;;;;;;;2.42;1.52;;;17.90;99.90;;;;;;5002870;28;20125;-59
2022/04/12 09:39:53;;;;;;;1.85;1.42;;;18.10;99.90;;;;;;5007981;28;20080;-59
2022/04/12 09:42:41;;;;;;;1.30;1.20;;;18.20;99.90;;;;;;4998067;28;20513;-59
2022/04/12 09:45:09;;;;;;;2.20;1.33;;;18.50;99.90;;;;;;5008021;28;20883;-59
2022/04/12 09:47:37;;;;;;;3.33;1.42;;;18.60;99.90;;;;;;4996636;28;20149;-59
2022/04/12 09:50:25;;;;;;;1.58;1.00;;;18.80;99.90;;;;;;5011085;28;20335;-59
2022/04/12 09:52:55;;;;;;;2.55;1.13;;;18.80;99.90;;;;;;5017140;28;20083;-59
2022/04/12 09:55:31;;;;;;;2.08;0.80;;;18.90;99.90;;;;;;5019746;28;20057;-59
2022/04/12 09:58:10;;;;;;;2.50;1.25;;;18.80;99.90;;;;;;5020803;28;20327;-59
2022/04/12 10:00:39;;;;;;;1.55;0.93;;;18.80;99.90;;;;;;5020303;28;20644;-59
2022/04/12 10:03:07;;;;;;;1.65;0.95;;;18.80;99.90;;;;;;5020679;28;20350;-59
2022/04/12 10:05:34;;;;;;;2.47;1.63;;;18.80;99.90;;;;;;5020294;28;20049;-60
2022/04/12 10:08:05;;;;;;;2.03;1.35;;;18.90;99.90;;;;;;5020434;28;20516;-59
2022/04/12 10:10:32;;;;;;;3.13;1.30;;;19.10;99.90;;;;;;5019077;28;20123;-60
2022/04/12 10:12:59;;;;;;;2.45;1.50;;;19.00;99.90;;;;;;5020545;28;20524;-59
2022/04/12 10:15:26;;;;;;;2.03;1.05;;;19.10;99.90;;;;;;5019294;28;20152;-59
2022/04/12 10:17:53;;;;;;;1.80;1.02;;;19.30;99.90;;;;;;5020139;28;20124;-60
2022/04/12 10:20:20;;;;;;;1.73;0.93;;;19.50;99.90;;;;;;5019759;28;20445;-60
2022/04/12 10:22:47;;;;;;;1.65;0.95;;;19.60;99.90;;;;;;5019766;28;20060;-59
2022/04/12 10:25:19;;;;;;;2.05;1.15;;;19.60;99.90;;;;;;5019568;28;20141;-59
2022/04/12 10:27:48;;;;;;;2.58;1.02;;;19.70;99.90;;;;;;5019256;28;20049;-60
2022/04/12 10:30:17;;;;;;;1.90;1.10;;;19.70;99.90;;;;;;5018527;28;20140;-60
2022/04/12 10:33:06;;;;;;;2.67;1.17;;;19.60;99.90;;;;;;5019932;28;20119;-60
2022/04/12 10:35:42;;;;;;;1.83;1.20;;;19.60;99.90;;;;;;5019814;28;20053;-60
2022/04/12 10:38:10;;;;;;;2.15;1.30;;;19.80;99.90;;;;;;5020100;28;20601;-59
2022/04/12 10:40:47;;;;;;;2.03;1.27;;;19.90;99.90;;;;;;5020252;28;20535;-60
2022/04/12 10:43:14;;;;;;;2.13;1.30;;;20.00;99.90;;;;;;5019770;28;20483;-59
2022/04/12 10:45:46;;;;;;;1.80;1.15;;;19.90;99.90;;;;;;5018088;28;20092;-60
2022/04/12 10:48:20;;;;;;;1.40;1.10;;;19.80;99.90;;;;;;5019901;28;20144;-60
2022/04/12 10:50:47;;;;;;;3.50;1.70;;;19.80;99.90;;;;;;5019347;28;20744;-60
2022/04/12 10:53:14;;;;;;;2.47;1.48;;;19.70;99.90;;;;;;5019684;28;20131;-59
2022/04/12 10:55:42;;;;;;;2.60;1.50;;;19.80;99.90;;;;;;5018720;28;20204;-59
2022/04/12 10:58:29;;;;;;;2.38;1.23;;;19.90;99.90;;;;;;5017685;28;20144;-59
2022/04/12 11:00:56;;;;;;;2.13;1.00;;;20.10;99.90;;;;;;5017681;28;20077;-59
2022/04/12 11:03:45;;;;;;;2.20;1.25;;;20.10;99.90;;;;;;5018004;28;20068;-59
2022/04/12 11:06:32;;;;;;;2.60;1.25;;;20.20;99.90;;;;;;5019559;28;20516;-60
2022/04/12 11:09:15;;;;;;;3.97;1.65;;;20.20;99.90;;;;;;5020358;28;20136;-59
2022/04/12 11:11:44;;;;;;;3.50;1.73;;;20.20;99.90;;;;;;5023410;28;20140;-59
2022/04/12 11:14:33;;;;;;;3.92;1.48;;;20.20;99.90;;;;;;5021099;28;20295;-60
2022/04/12 11:17:06;;;;;;;2.20;1.20;;;20.30;99.90;;;;;;5022611;28;20065;-60
2022/04/12 11:19:47;;;;;;;1.45;0.90;;;20.30;99.90;;;;;;5022197;28;20084;-60
2022/04/12 11:22:14;;;;;;;2.33;1.20;;;20.60;99.90;;;;;;5026236;28;20327;-60
2022/04/12 11:24:41;;;;;;;2.58;1.35;;;20.80;99.90;;;;;;5021790;28;20111;-60
2022/04/12 11:27:12;;;;;;;2.88;1.70;;;20.80;99.90;;;;;;5022161;28;20140;-60
2022/04/12 11:29:40;;;;;;;3.05;1.63;;;20.60;99.90;;;;;;5024417;28;20406;-60
2022/04/12 11:32:07;;;;;;;2.60;1.52;;;20.70;99.90;;;;;;5023703;28;20045;-59
2022/04/12 11:34:36;;;;;;;2.28;1.30;;;20.70;99.90;;;;;;5024571;28;20394;-60
2022/04/12 11:37:08;;;;;;;1.63;1.02;;;20.80;99.90;;;;;;5025893;28;20167;-60
2022/04/12 11:39:42;;;;;;;1.25;1.00;;;21.00;99.90;;;;;;5023468;28;20058;-60
2022/04/12 11:42:11;;;;;;;1.85;1.13;;;21.10;99.90;;;;;;5024385;28;20046;-60
2022/04/12 11:44:37;;;;;;;2.13;0.90;;;21.20;99.90;;;;;;5024754;28;20054;-60
2022/04/12 11:47:09;;;;;;;1.08;0.80;;;21.20;99.90;;;;;;5023080;28;20528;-59
2022/04/12 11:49:43;;;;;;;1.70;1.05;;;21.40;99.90;;;;;;5020531;28;20422;-60
2022/04/12 11:52:13;;;;;;;1.73;1.02;;;21.70;99.90;;;;;;5021847;28;20103;-59
2022/04/12 11:54:41;;;;;;;1.25;0.80;;;22.00;99.90;;;;;;5022501;28;20095;-60
2022/04/12 11:57:21;;;;;;;2.95;1.45;;;22.10;99.90;;;;;;5024962;28;20132;-60
2022/04/12 11:59:49;;;;;;;2.47;1.27;;;21.90;99.90;;;;;;5023344;28;20045;-60
2022/04/12 12:02:19;;;;;;;1.85;1.30;;;22.00;99.90;;;;;;5024655;28;20408;-60
2022/04/12 12:04:59;;;;;;;2.70;1.10;;;22.00;99.90;;;;;;5023902;28;20099;-60
2022/04/12 12:07:27;;;;;;;1.63;0.88;;;22.30;99.90;;;;;;5024981;28;20694;-61
2022/04/12 12:09:57;;;;;;;1.15;0.98;;;22.30;99.90;;;;;;5023952;28;20081;-60
2022/04/12 12:12:40;;;;;;;1.73;0.90;;;22.30;99.90;;;;;;5024288;28;20112;-60
2022/04/12 12:15:22;;;;;;;1.48;0.90;;;22.40;99.90;;;;;;5024555;28;20215;-60
2022/04/12 12:17:53;;;;;;;1.65;0.98;;;22.80;99.90;;;;;;5024878;28;20065;-62
2022/04/12 12:20:22;;;;;;;2.38;1.02;;;23.20;99.90;;;;;;5021954;28;20176;-60
2022/04/12 12:23:08;;;;;;;2.63;1.08;;;23.30;99.60;;;;;;5022373;28;20053;-60
2022/04/12 12:25:51;;;;;;;2.33;0.98;;;23.40;99.10;;;;;;5021991;28;20529;-60
2022/04/12 12:28:20;;;;;;;1.95;1.20;;;23.50;99.80;;;;;;5022460;28;20046;-61
2022/04/12 12:31:00;;;;;;;3.42;1.00;;;23.70;98.70;;;;;;5022444;28;20053;-60
2022/04/12 12:33:46;;;;;;;1.10;0.82;;;23.90;98.90;;;;;;5023118;28;20049;-60
2022/04/12 12:36:20;;;;;;;1.90;1.00;;;24.10;99.00;;;;;;5024822;28;20049;-60
2022/04/12 12:38:48;;;;;;;2.20;0.90;;;24.10;98.10;;;;;;5024072;28;20413;-60
2022/04/12 12:41:31;;;;;;;3.63;1.65;;;23.80;99.20;;;;;;5024355;28;20084;-60
2022/04/12 12:44:00;;;;;;;2.70;1.10;;;23.40;99.00;;;;;;5022716;28;20130;-60
2022/04/12 12:46:27;;;;;;;2.58;1.10;;;23.10;99.30;;;;;;5023805;28;20085;-60
2022/04/12 12:49:10;;;;;;;3.20;1.10;;;22.80;99.50;;;;;;5023189;28;20142;-60
2022/04/12 12:51:37;;;;;;;3.30;1.33;;;22.40;99.90;;;;;;5024546;28;20072;-60
2022/04/12 12:54:04;;;;;;;2.92;1.00;;;22.60;99.90;;;;;;5023513;28;20081;-60
2022/04/12 12:56:32;;;;;;;1.77;0.90;;;22.60;99.80;;;;;;5024219;28;20045;-60
2022/04/12 12:59:18;;;;;;;1.70;1.00;;;22.90;99.60;;;;;;5023765;28;20100;-60